Hartford, CT

4:59 AM EDT on May 28, 2015 (GMT -0400)
Bradley International | | Change Station
CLOSE
Current Station
Airport
Location: Windsor Locks,
Elevation: 180 ft
Nearby Weather Stations

Elev 180 ft 41.94 °N, 72.68 °W | Updated 8 minutes ago

Mostly Cloudy
Mostly Cloudy
65 °F
Feels Like 65 °F
N
7
Wind Variable Wind from South

Today
High -- | Low -- °F
--% Chance of Precip.
Yesterday
High -- | Low -- °F
Precip. -- in
5:20 AM 8:16 PM
Waxing Gibbous, 74% visible
Pressure 30.11 in
Visibility 8.0 miles
Clouds Few 1000 ft
Few 1600 ft
Scattered Clouds 18000 ft
Scattered Clouds 22000 ft
Dew Point 62 °F
Humidity 90%
Rainfall 0.00 in
Snow Depth Not available.
UV 0 out of 12
Pollen 7.90 out of 12
Air Quality Not available.
Flu Activity Regional
METAR KBDL 280851Z 18006KT 8SM FEW010 FEW016 SCT180 SCT220 18/17 A3011 RMK AO2 SLP195 T01830167 58001

More Conditions Fewer Conditions

Pressure 30.11 in
Visibility 8.0 miles
Clouds Few 1000 ft
Few 1600 ft
Scattered Clouds 18000 ft
Scattered Clouds 22000 ft
Dew Point 62 °F
Humidity 90%
Rainfall 0.00 in
Snow Depth Not available.
UV 0 out of 12
Pollen 7.90 out of 12
Air Quality Not available.
Flu Activity Regional
METAR KBDL 280851Z 18006KT 8SM FEW010 FEW016 SCT180 SCT220 18/17 A3011 RMK AO2 SLP195 T01830167 58001

More Conditions Fewer Conditions

10-Day Weather Forecast

Almanac

Astronomy

May. 28, 2015 Rise Set
Actual Time
Civil Twilight
Nautical Twilight
Astronomical Twilight
Moon
Length of Visible Light
Length of Day
Tomorrow will be .
, % of the Moon is Illuminated

Today's Extremes

State Highs State Lows

Community

WunderPhotos

Upload Photos

1,824,935 photos uploaded!

WunderBlogs® & News

Nearby

Air Quality

  Air Quality AQ Index Pollutant
Not available.

Snow Depth

Station Depth Elevation

Earthquake Activity

City Distance Mag. Time & Date
Minimum magnitude displayed is 2.5.

Coastal Water Temperatures

Place Temperature

Stations

Nearby Weather Stations

Station Location Temp. Windchill Dew Point Humidity Wind Precip. Elev Updated Type